K4BM

Wilkerson Pass Airport

Wilkerson Pass, Colorado, USA
METAR K4BM 191612Z AUTO 30006KT 10SM CLR M08/M21 A3022 RMK AO2
Observed Flight Rules
Jan-19 @ 16:12 UTC (25 minutes ago) Visual Flight Rules
Wind Visibility Clouds
300° at 6 knots 10 miles
  • Clear skies
Temperatures Readings
Current -8°C / 18°F
Dewpoint -21°C / -6°F
Humidity 35%
Altimeter 30.22" Hg
Pressure 1023.42 hPa
Elevation 3438
METAR K4BM 191612Z AUTO 30006KT 10SM CLR M08/M21 A3022 RMK AO2
Observed Flight Rules
Jan-19 @ 16:12 UTC
(25 minutes ago)
VFR
Wind Visibility
300° at 6 knots 10 miles
Clouds
  • Clear skies
Temperature Dewpoint
-8°C / 18°F -21°C / -6°F
Humidity Altimeter Pressure
35% 30.22" Hg 1023.42 hPa